Catàleg de serveis del Meteocat
Campanya meteocatpedra

Dades de l'estació automàtica Sant Pau de Segúries

?
?
Resum diari 23:00 TU
Dades diàries de l'estació meteorològica
Temperatura mitjana 19.3 °C
Temperatura màxima 28.7 °C 13:29 TU
Temperatura mínima 10.6 °C 5:10 TU
Humitat relativa mitjana 59%
Precipitació acumulada 0.0 mm
Ratxa màxima del vent (10 m) 23.8 km/h - 103º 14:02 TU
Pressió atmosfèrica mitjana 1010.7 hPa

El tram horari està expressat en Temps Universal (TU). Cal sumar una hora en horari d'hivern i dues en horari d'estiu per passar a l'hora oficial.

Sant Pau de Segúries

Metadades estació meteorol´gica
Municipi Sant Pau de Segúries
Comarca Ripollès
Altitud 852 m
Data alta 24.11.1995
Estat actual Operativa
Dades de període
Període
TU
TM
°C
TX
°C
TN
°C
HRM
%
PPT
mm
VVM (10 m)
km/h
DVM (10 m)
graus
VVX (10 m)
km/h
PM
hPa
00:00 - 00:30 13.7 13.9 13.2 73 0.0 3.6 85 8.6 1012.9
00:30 - 01:00 13.8 14.1 13.7 69 0.0 4.7 61 9.7 1012.8
01:00 - 01:30 13.2 13.8 12.8 73 0.0 2.5 74 8.3 1012.8
01:30 - 02:00 13.1 13.4 12.3 70 0.0 2.9 85 7.9 1012.6
02:00 - 02:30 12.4 12.8 11.8 74 0.0 2.9 83 12.2 1012.7
02:30 - 03:00 11.9 12.5 11.4 77 0.0 1.8 70 7.9 1012.9
03:00 - 03:30 11.1 11.5 10.7 82 0.0 0.7 103 5.0 1013.2
03:30 - 04:00 11.6 12.4 10.8 79 0.0 1.8 99 5.8 1012.9
04:00 - 04:30 11.6 12.2 10.9 78 0.0 1.8 109 7.9 1013.0
04:30 - 05:00 11.0 11.2 10.8 84 0.0 1.1 236 4.3 1013.2
05:00 - 05:30 10.9 11.8 10.6 88 0.0 1.4 214 3.6 1013.2
05:30 - 06:00 13.3 15.2 11.8 77 0.0 1.1 148 4.3 1012.4
06:00 - 06:30 15.4 16.4 15.1 64 0.0 1.1 126 5.0 1011.7
06:30 - 07:00 17.0 17.5 16.4 62 0.0 1.1 187 4.0 1011.1
07:00 - 07:30 18.0 18.9 17.2 65 0.0 2.9 244 7.9 1010.6
07:30 - 08:00 20.2 21.9 19.0 59 0.0 1.4 220 5.4 1009.8
08:00 - 08:30 22.2 22.7 21.3 48 0.0 2.2 157 7.6 1009.0
08:30 - 09:00 23.0 23.6 22.6 48 0.0 2.5 62 10.1 1008.6
09:00 - 09:30 24.1 24.8 23.6 46 0.0 3.6 13 10.1 1008.0
09:30 - 10:00 24.3 24.8 23.7 45 0.0 4.0 242 12.6 1007.9
10:00 - 10:30 24.3 24.8 23.4 42 0.0 3.2 200 9.0 1007.9
10:30 - 11:00 24.9 25.6 24.5 37 0.0 4.3 198 16.9 1007.6
11:00 - 11:30 26.2 26.8 25.6 33 0.0 3.2 306 8.3 1007.0
11:30 - 12:00 26.4 27.1 25.3 33 0.0 3.2 137 12.2 1006.8
12:00 - 12:30 26.4 27.4 25.2 25 0.0 4.7 114 19.4 1006.7
12:30 - 13:00 27.5 27.9 26.9 21 0.0 6.1 26 18.4 1006.3
13:00 - 13:30 27.5 28.7 27.0 19 0.0 7.6 42 20.5 1006.3
13:30 - 14:00 27.6 28.7 26.9 28 0.0 4.7 137 19.4 1006.2
14:00 - 14:30 25.9 28.0 24.8 37 0.0 6.5 113 23.8 1006.9
14:30 - 15:00 26.4 26.6 26.1 40 0.0 5.8 163 15.5 1006.8
15:00 - 15:30 26.4 26.8 25.9 40 0.0 7.6 98 18.4 1006.9
15:30 - 16:00 25.6 26.3 25.1 46 0.0 7.9 81 22.3 1007.4
16:00 - 16:30 25.0 25.3 24.3 48 0.0 6.1 105 21.2 1007.9
16:30 - 17:00 24.3 24.7 23.8 49 0.0 5.0 163 14.8 1008.4
17:00 - 17:30 23.7 23.9 23.4 49 0.0 4.3 164 12.6 1009.0
17:30 - 18:00 23.0 23.3 22.4 50 0.0 3.6 104 12.2 1009.6
18:00 - 18:30 21.8 22.4 21.3 52 0.0 3.2 178 10.8 1010.5
18:30 - 19:00 20.9 21.3 20.2 56 0.0 2.9 82 8.6 1011.4
19:00 - 19:30 18.8 20.3 17.9 67 0.0 1.4 143 7.6 1012.4
19:30 - 20:00 17.9 18.7 17.2 71 0.0 2.2 75 7.6 1013.1
20:00 - 20:30 16.8 17.2 16.2 76 0.0 1.8 59 10.1 1014.0
20:30 - 21:00 15.4 16.3 14.9 81 0.0 1.1 179 4.0 1015.0
21:00 - 21:30 14.6 14.9 14.2 85 0.0 0.7 184 4.0 1015.6
21:30 - 22:00 14.8 15.8 14.1 84 0.0 1.4 122 6.1 1015.9
22:00 - 22:30 15.3 15.6 15.1 79 0.0 2.9 85 8.3 1015.8
22:30 - 23:00 14.4 15.1 13.7 82 0.0 1.1 154 5.0 1016.5
23:00 - 23:30 13.5 14.2 13.1 85 0.0 1.8 125 5.0 1016.8

Les dades en taronja només han passat un control de qualitat automàtic. Resta pendent la seva validació definitiva.